Time;durP1;ratioP1;P1;durP2;ratioP2;P2;SDS_P1;SDS_P2;PMS_P1;PMS_P2;Temp;Humidity;BMP_temperature;BMP_pressure;BME280_temperature;BME280_humidity;BME280_pressure;Samples;Min_cycle;Max_cycle;Signal;HPM_P1;HPM_P2
2022/11/10 00:01:55;;;;;;;;;;;;;;;;;;6240258;22;19925;-91
2022/11/10 00:04:21;;;;;;;;;;;;;;;;;;6239646;22;19926;-91
2022/11/10 00:06:47;;;;;;;;;;;;;;;;;;6240129;22;20348;-90
2022/11/10 00:09:13;;;;;;;;;;;;;;;;;;6265624;22;19931;-89
2022/11/10 00:11:38;;;;;;;;;;;;;;;;;;6273465;22;19930;-91
2022/11/10 00:17:05;;;;;;;;;;;;;;;;;;6255499;22;19919;-90
2022/11/10 00:19:31;;;;;;;;;;;;;;;;;;6225798;22;20379;-91
2022/11/10 00:21:57;;;;;;;;;;;;;;;;;;6253933;22;20022;-90
2022/11/10 00:24:23;;;;;;;;;;;;;;;;;;6251229;22;20379;-90
2022/11/10 00:26:49;;;;;;;;;;;;;;;;;;6229831;22;19919;-91
2022/11/10 00:29:15;;;;;;;;;;;;;;;;;;6240897;22;20244;-91
2022/11/10 00:31:40;;;;;;;;;;;;;;;;;;6268638;22;19926;-90
2022/11/10 00:34:07;;;;;;;;;;;;;;;;;;6235524;22;19926;-90
2022/11/10 00:36:33;;;;;;;;;;;;;;;;;;6232166;22;20364;-90
2022/11/10 00:38:58;;;;;;;;;;;;;;;;;;6235432;22;19919;-90
2022/11/10 00:41:24;;;;;;;;;;;;;;;;;;6234157;22;20411;-90
2022/11/10 00:43:50;;;;;;;;;;;;;;;;;;6263813;22;20381;-91
2022/11/10 00:46:16;;;;;;;;;;;;;;;;;;6259387;22;19919;-89
2022/11/10 00:48:42;;;;;;;;;;;;;;;;;;6229695;22;19919;-90
2022/11/10 00:51:08;;;;;;;;;;;;;;;;;;6255732;22;19968;-90
2022/11/10 00:53:34;;;;;;;;;;;;;;;;;;6232431;22;20014;-90
2022/11/10 00:56:00;;;;;;;;;;;;;;;;;;6260439;22;19919;-90
2022/11/10 00:58:26;;;;;;;;;;;;;;;;;;6226873;22;20026;-91
2022/11/10 01:00:52;;;;;;;;;;;;;;;;;;6253002;22;20308;-90
2022/11/10 01:03:18;;;;;;;;;;;;;;;;;;6251319;22;20275;-91
2022/11/10 01:05:44;;;;;;;;;;;;;;;;;;6230450;22;20009;-90
2022/11/10 01:08:10;;;;;;;;;;;;;;;;;;6234620;22;19923;-91
2022/11/10 01:10:36;;;;;;;;;;;;;;;;;;6229609;22;19915;-91
2022/11/10 01:13:02;;;;;;;;;;;;;;;;;;6255766;22;19994;-90
2022/11/10 01:15:28;;;;;;;;;;;;;;;;;;6226945;22;19923;-90
2022/11/10 01:17:53;;;;;;;;;;;;;;;;;;6228363;22;20266;-90
2022/11/10 01:20:19;;;;;;;;;;;;;;;;;;6226721;22;19962;-90
2022/11/10 01:22:45;;;;;;;;;;;;;;;;;;6231103;22;19927;-90
2022/11/10 01:25:11;;;;;;;;;;;;;;;;;;6228134;22;19933;-90
2022/11/10 01:27:37;;;;;;;;;;;;;;;;;;6225842;22;20394;-90
2022/11/10 01:30:03;;;;;;;;;;;;;;;;;;6253755;22;20252;-91
2022/11/10 01:32:29;;;;;;;;;;;;;;;;;;6250263;22;20304;-90
2022/11/10 01:34:56;;;;;;;;;;;;;;;;;;6253700;22;19981;-90
2022/11/10 01:37:22;;;;;;;;;;;;;;;;;;6225114;22;19919;-91
2022/11/10 01:39:48;;;;;;;;;;;;;;;;;;6230017;22;19945;-90
2022/11/10 01:42:14;;;;;;;;;;;;;;;;;;6225886;22;19919;-90
2022/11/10 01:44:40;;;;;;;;;;;;;;;;;;6259816;22;19988;-89
2022/11/10 01:47:05;;;;;;;;;;;;;;;;;;6255958;22;19969;-90
2022/11/10 01:49:34;;;;;;;;;;;;;;;;;;6250075;22;19919;-90
2022/11/10 01:52:00;;;;;;;;;;;;;;;;;;6227363;22;19927;-90
2022/11/10 01:54:26;;;;;;;;;;;;;;;;;;6250031;22;20332;-91
2022/11/10 01:56:52;;;;;;;;;;;;;;;;;;6255846;22;19973;-91
2022/11/10 01:59:18;;;;;;;;;;;;;;;;;;6227717;22;20290;-90
2022/11/10 02:01:44;;;;;;;;;;;;;;;;;;6253297;22;19962;-90
2022/11/10 02:04:10;;;;;;;;;;;;;;;;;;6228535;22;19965;-90
2022/11/10 02:06:36;;;;;;;;;;;;;;;;;;6224098;22;19955;-90
2022/11/10 02:09:02;;;;;;;;;;;;;;;;;;6230273;22;19926;-90
2022/11/10 02:11:28;;;;;;;;;;;;;;;;;;6230877;22;19926;-90
2022/11/10 02:13:54;;;;;;;;;;;;;;;;;;6252741;22;19924;-90
2022/11/10 02:16:20;;;;;;;;;;;;;;;;;;6229720;22;19994;-90
2022/11/10 02:18:46;;;;;;;;;;;;;;;;;;6232181;22;19926;-90
2022/11/10 02:21:15;;;;;;;;;;;;;;;;;;6232636;22;19989;-91
2022/11/10 02:23:40;;;;;;;;;;;;;;;;;;6230284;22;20344;-90
2022/11/10 02:26:06;;;;;;;;;;;;;;;;;;6227923;22;20548;-90
2022/11/10 02:28:32;;;;;;;;;;;;;;;;;;6230447;22;20300;-89
2022/11/10 02:30:58;;;;;;;;;;;;;;;;;;6234070;22;19923;-90
2022/11/10 02:33:24;;;;;;;;;;;;;;;;;;6230285;22;19919;-91
2022/11/10 02:35:50;;;;;;;;;;;;;;;;;;6257839;22;19919;-90
2022/11/10 02:38:16;;;;;;;;;;;;;;;;;;6252122;22;19959;-90
2022/11/10 02:40:42;;;;;;;;;;;;;;;;;;6228639;22;19930;-90
2022/11/10 02:43:08;;;;;;;;;;;;;;;;;;6256417;22;19915;-89
2022/11/10 02:45:34;;;;;;;;;;;;;;;;;;6253245;22;20363;-90
2022/11/10 02:48:00;;;;;;;;;;;;;;;;;;6261664;22;19919;-91
2022/11/10 02:50:26;;;;;;;;;;;;;;;;;;6229354;22;19930;-90
2022/11/10 02:52:52;;;;;;;;;;;;;;;;;;6229168;22;19943;-90
2022/11/10 02:55:18;;;;;;;;;;;;;;;;;;6227283;22;20350;-90
2022/11/10 02:57:44;;;;;;;;;;;;;;;;;;6231427;22;19919;-90
2022/11/10 03:00:10;;;;;;;;;;;;;;;;;;6231282;22;19951;-90
2022/11/10 03:02:36;;;;;;;;;;;;;;;;;;6231465;22;19930;-90
2022/11/10 03:05:02;;;;;;;;;;;;;;;;;;6256162;22;19973;-89
2022/11/10 03:07:28;;;;;;;;;;;;;;;;;;6230019;22;19958;-90
2022/11/10 03:09:54;;;;;;;;;;;;;;;;;;6233125;22;19919;-89
2022/11/10 03:12:20;;;;;;;;;;;;;;;;;;6227742;22;19951;-90
2022/11/10 03:14:46;;;;;;;;;;;;;;;;;;6260239;22;19930;-90
2022/11/10 03:17:15;;;;;;;;;;;;;;;;;;6230346;22;20105;-90
2022/11/10 03:19:41;;;;;;;;;;;;;;;;;;6232326;22;19973;-90
2022/11/10 03:22:07;;;;;;;;;;;;;;;;;;6256056;22;19923;-90
2022/11/10 03:24:33;;;;;;;;;;;;;;;;;;6257001;22;20569;-90
2022/11/10 03:26:59;;;;;;;;;;;;;;;;;;6233368;22;19919;-90
2022/11/10 03:29:25;;;;;;;;;;;;;;;;;;6255981;22;19919;-90
2022/11/10 03:31:51;;;;;;;;;;;;;;;;;;6230234;22;20336;-90
2022/11/10 03:34:17;;;;;;;;;;;;;;;;;;6252352;22;20516;-89
2022/11/10 03:36:43;;;;;;;;;;;;;;;;;;6231631;22;19919;-90
2022/11/10 03:39:09;;;;;;;;;;;;;;;;;;6256766;22;19922;-90
2022/11/10 03:41:35;;;;;;;;;;;;;;;;;;6252695;22;19923;-90
2022/11/10 03:44:01;;;;;;;;;;;;;;;;;;6258278;22;19919;-89
2022/11/10 03:46:27;;;;;;;;;;;;;;;;;;6227713;22;19923;-89
2022/11/10 03:48:53;;;;;;;;;;;;;;;;;;6230302;22;19941;-90
2022/11/10 03:51:19;;;;;;;;;;;;;;;;;;6260709;22;19922;-90
2022/11/10 03:53:45;;;;;;;;;;;;;;;;;;6232749;22;19923;-90
2022/11/10 03:56:12;;;;;;;;;;;;;;;;;;6255314;22;19923;-90
2022/11/10 03:58:40;;;;;;;;;;;;;;;;;;6230131;22;19941;-89
2022/11/10 04:01:06;;;;;;;;;;;;;;;;;;6229778;22;20391;-90
2022/11/10 04:03:32;;;;;;;;;;;;;;;;;;6224809;22;19923;-90
2022/11/10 04:08:58;;;;;;;;;;;;;;;;;;6255178;22;20404;-90
2022/11/10 04:16:54;;;;;;;;;;;;;;;;;;6257743;22;20275;-90
2022/11/10 04:19:20;;;;;;;;;;;;;;;;;;6253595;22;19915;-90
2022/11/10 04:21:46;;;;;;;;;;;;;;;;;;6227097;22;20573;-89
2022/11/10 04:24:12;;;;;;;;;;;;;;;;;;6230564;22;19990;-90
2022/11/10 04:26:41;;;;;;;;;;;;;;;;;;6251943;22;19926;-90
2022/11/10 04:29:08;;;;;;;;;;;;;;;;;;6252185;22;20428;-90
2022/11/10 04:31:36;;;;;;;;;;;;;;;;;;6251065;22;19919;-90
2022/11/10 04:34:02;;;;;;;;;;;;;;;;;;6254907;22;19919;-91
2022/11/10 04:36:28;;;;;;;;;;;;;;;;;;6225245;22;20255;-90
2022/11/10 04:38:57;;;;;;;;;;;;;;;;;;6228503;22;19956;-90
2022/11/10 04:41:23;;;;;;;;;;;;;;;;;;6226477;22;20668;-90
2022/11/10 04:43:48;;;;;;;;;;;;;;;;;;6229145;22;19919;-90
2022/11/10 04:46:14;;;;;;;;;;;;;;;;;;6229089;22;20252;-89
2022/11/10 04:48:40;;;;;;;;;;;;;;;;;;6233847;22;20221;-90
2022/11/10 04:51:06;;;;;;;;;;;;;;;;;;6255455;22;19919;-89
2022/11/10 04:53:32;;;;;;;;;;;;;;;;;;6236181;22;19969;-89
2022/11/10 04:55:58;;;;;;;;;;;;;;;;;;6261884;22;19994;-90
2022/11/10 04:58:24;;;;;;;;;;;;;;;;;;6254233;22;19919;-89
2022/11/10 05:00:50;;;;;;;;;;;;;;;;;;6254664;22;19998;-90
2022/11/10 05:03:16;;;;;;;;;;;;;;;;;;6226784;22;20244;-90
2022/11/10 05:05:42;;;;;;;;;;;;;;;;;;6256138;22;20428;-90
2022/11/10 05:08:08;;;;;;;;;;;;;;;;;;6232357;22;19915;-90
2022/11/10 05:10:34;;;;;;;;;;;;;;;;;;6230457;22;20193;-90
2022/11/10 05:13:00;;;;;;;;;;;;;;;;;;6227525;22;19920;-90
2022/11/10 05:15:26;;;;;;;;;;;;;;;;;;6252646;22;20344;-90
2022/11/10 05:17:52;;;;;;;;;;;;;;;;;;6228681;22;19962;-90
2022/11/10 05:20:18;;;;;;;;;;;;;;;;;;6257442;22;20331;-89
2022/11/10 05:22:44;;;;;;;;;;;;;;;;;;6233915;22;19919;-90
2022/11/10 05:25:10;;;;;;;;;;;;;;;;;;6234967;22;20336;-90
2022/11/10 05:27:36;;;;;;;;;;;;;;;;;;6264617;22;20298;-90
2022/11/10 05:30:02;;;;;;;;;;;;;;;;;;6260361;22;19923;-90
2022/11/10 05:32:28;;;;;;;;;;;;;;;;;;6230539;22;20348;-91
2022/11/10 05:34:54;;;;;;;;;;;;;;;;;;6232140;22;20244;-90
2022/11/10 05:37:20;;;;;;;;;;;;;;;;;;6255984;22;20288;-90
2022/11/10 05:39:46;;;;;;;;;;;;;;;;;;6258542;22;20348;-90
2022/11/10 05:42:15;;;;;;;;;;;;;;;;;;6234586;22;19919;-89
2022/11/10 05:44:41;;;;;;;;;;;;;;;;;;6260813;22;20231;-90
2022/11/10 05:47:07;;;;;;;;;;;;;;;;;;6232449;22;19923;-90
2022/11/10 05:49:33;;;;;;;;;;;;;;;;;;6233558;22;20381;-90
2022/11/10 05:51:59;;;;;;;;;;;;;;;;;;6235731;22;19996;-90
2022/11/10 05:54:25;;;;;;;;;;;;;;;;;;6256257;22;20255;-89
2022/11/10 05:56:51;;;;;;;;;;;;;;;;;;6235200;22;19919;-90
2022/11/10 05:59:17;;;;;;;;;;;;;;;;;;6235180;22;19930;-90
2022/11/10 06:01:43;;;;;;;;;;;;;;;;;;6257252;22;19924;-90
2022/11/10 06:04:09;;;;;;;;;;;;;;;;;;6235444;22;19916;-91
2022/11/10 06:06:35;;;;;;;;;;;;;;;;;;6234808;22;19920;-90
2022/11/10 06:09:01;;;;;;;;;;;;;;;;;;6235910;22;19919;-91
2022/11/10 06:11:27;;;;;;;;;;;;;;;;;;6259061;22;19923;-90
2022/11/10 06:13:53;;;;;;;;;;;;;;;;;;6239011;22;19976;-90
2022/11/10 06:16:19;;;;;;;;;;;;;;;;;;6236798;22;19919;-90
2022/11/10 06:18:44;;;;;;;;;;;;;;;;;;6237275;22;19916;-90
2022/11/10 06:21:10;;;;;;;;;;;;;;;;;;6233560;22;19923;-90
2022/11/10 06:23:36;;;;;;;;;;;;;;;;;;6231922;22;20010;-89
2022/11/10 06:26:02;;;;;;;;;;;;;;;;;;6233992;22;19919;-89
2022/11/10 06:28:28;;;;;;;;;;;;;;;;;;6234965;22;19998;-90
2022/11/10 06:30:54;;;;;;;;;;;;;;;;;;6263942;22;19915;-90
2022/11/10 06:33:20;;;;;;;;;;;;;;;;;;6232246;22;20355;-90
2022/11/10 06:35:46;;;;;;;;;;;;;;;;;;6236061;22;20427;-89
2022/11/10 06:38:15;;;;;;;;;;;;;;;;;;6259823;22;20286;-89
2022/11/10 06:40:41;;;;;;;;;;;;;;;;;;6261711;22;20021;-89
2022/11/10 06:43:07;;;;;;;;;;;;;;;;;;6236243;22;20407;-89
2022/11/10 06:45:33;;;;;;;;;;;;;;;;;;6259806;22;20359;-89
2022/11/10 06:47:59;;;;;;;;;;;;;;;;;;6236906;22;19973;-89
2022/11/10 06:50:25;;;;;;;;;;;;;;;;;;6235312;22;20022;-90
2022/11/10 06:52:51;;;;;;;;;;;;;;;;;;6264527;22;19915;-89
2022/11/10 06:55:17;;;;;;;;;;;;;;;;;;6236138;22;19994;-89
2022/11/10 06:57:43;;;;;;;;;;;;;;;;;;6261468;22;20328;-89
2022/11/10 07:00:09;;;;;;;;;;;;;;;;;;6259058;22;20753;-89
2022/11/10 07:02:35;;;;;;;;;;;;;;;;;;6253027;22;20287;-89
2022/11/10 07:05:00;;;;;;;;;;;;;;;;;;6229516;22;19990;-88
2022/11/10 07:07:26;;;;;;;;;;;;;;;;;;6255406;22;19949;-89
2022/11/10 07:09:52;;;;;;;;;;;;;;;;;;6230040;22;19915;-89
2022/11/10 07:12:18;;;;;;;;;;;;;;;;;;6229098;22;19919;-88
2022/11/10 07:14:44;;;;;;;;;;;;;;;;;;6236626;22;20336;-89
2022/11/10 07:17:10;;;;;;;;;;;;;;;;;;6233541;22;19989;-89
2022/11/10 07:19:36;;;;;;;;;;;;;;;;;;6267654;22;20327;-89
2022/11/10 07:22:02;;;;;;;;;;;;;;;;;;6264042;22;20287;-89
2022/11/10 07:24:29;;;;;;;;;;;;;;;;;;6258085;22;19990;-90
2022/11/10 07:26:55;;;;;;;;;;;;;;;;;;6236112;22;19915;-89
2022/11/10 07:29:21;;;;;;;;;;;;;;;;;;6237481;22;19915;-89
2022/11/10 07:31:47;;;;;;;;;;;;;;;;;;6264793;22;19923;-89
2022/11/10 07:34:13;;;;;;;;;;;;;;;;;;6258940;22;20260;-89
2022/11/10 07:36:39;;;;;;;;;;;;;;;;;;6234511;22;19994;-88
2022/11/10 07:39:05;;;;;;;;;;;;;;;;;;6259329;22;19919;-89
2022/11/10 07:41:31;;;;;;;;;;;;;;;;;;6230980;22;19925;-89
2022/11/10 07:43:57;;;;;;;;;;;;;;;;;;6231863;22;19923;-89
2022/11/10 07:46:25;;;;;;;;;;;;;;;;;;6233129;22;19919;-89
2022/11/10 07:48:57;;;;;;;;;;;;;;;;;;6236760;22;19919;-90
2022/11/10 07:51:26;;;;;;;;;;;;;;;;;;6236327;22;19953;-96
2022/11/10 07:53:52;;;;;;;;;;;;;;;;;;6257693;22;19919;-88
2022/11/10 07:56:18;;;;;;;;;;;;;;;;;;6255732;22;19919;-89
2022/11/10 07:58:44;;;;;;;;;;;;;;;;;;6232500;22;20227;-89
2022/11/10 08:01:17;;;;;;;;;;;;;;;;;;6235026;22;19954;-90
2022/11/10 08:03:43;;;;;;;;;;;;;;;;;;6260281;22;19915;-90
2022/11/10 08:06:09;;;;;;;;;;;;;;;;;;6264309;22;19920;-91
2022/11/10 08:08:35;;;;;;;;;;;;;;;;;;6235056;22;20045;-90
2022/11/10 08:11:01;;;;;;;;;;;;;;;;;;6262920;22;20423;-90
2022/11/10 08:13:27;;;;;;;;;;;;;;;;;;6236228;22;20017;-90
2022/11/10 08:15:54;;;;;;;;;;;;;;;;;;6264885;22;19915;-90
2022/11/10 08:18:20;;;;;;;;;;;;;;;;;;6236996;22;19923;-90
2022/11/10 08:20:47;;;;;;;;;;;;;;;;;;6261681;22;19923;-90
2022/11/10 08:23:13;;;;;;;;;;;;;;;;;;6264255;22;20298;-89
2022/11/10 08:25:39;;;;;;;;;;;;;;;;;;6264009;22;19916;-90
2022/11/10 08:28:05;;;;;;;;;;;;;;;;;;6238103;22;20260;-90
2022/11/10 08:30:31;;;;;;;;;;;;;;;;;;6264089;22;19916;-90
2022/11/10 08:32:57;;;;;;;;;;;;;;;;;;6240200;22;19945;-89
2022/11/10 08:35:23;;;;;;;;;;;;;;;;;;6259879;22;19919;-90
2022/11/10 08:37:49;;;;;;;;;;;;;;;;;;6239969;22;20307;-90
2022/11/10 08:40:15;;;;;;;;;;;;;;;;;;6235609;22;19989;-90
2022/11/10 08:42:41;;;;;;;;;;;;;;;;;;6238153;22;19919;-90
2022/11/10 08:45:07;;;;;;;;;;;;;;;;;;6265538;22;19955;-90
2022/11/10 08:47:33;;;;;;;;;;;;;;;;;;6236818;22;20310;-90
2022/11/10 08:49:59;;;;;;;;;;;;;;;;;;6264157;22;19962;-91
2022/11/10 08:52:24;;;;;;;;;;;;;;;;;;6236338;22;19915;-91
2022/11/10 08:54:57;;;;;;;;;;;;;;;;;;6238478;22;20020;-90
2022/11/10 08:57:22;;;;;;;;;;;;;;;;;;6262520;22;19919;-90
2022/11/10 08:59:48;;;;;;;;;;;;;;;;;;6264168;22;19920;-91
2022/11/10 09:02:14;;;;;;;;;;;;;;;;;;6236883;22;20347;-90
2022/11/10 09:04:40;;;;;;;;;;;;;;;;;;6263131;22;19945;-92
2022/11/10 09:07:06;;;;;;;;;;;;;;;;;;6239665;22;19919;-91
2022/11/10 09:09:32;;;;;;;;;;;;;;;;;;6261330;22;19919;-91
2022/11/10 09:11:58;;;;;;;;;;;;;;;;;;6239199;22;19961;-91
2022/11/10 09:14:24;;;;;;;;;;;;;;;;;;6237477;22;19919;-91
2022/11/10 09:16:50;;;;;;;;;;;;;;;;;;6263347;22;20321;-91
2022/11/10 09:19:16;;;;;;;;;;;;;;;;;;6236255;22;19928;-91
2022/11/10 09:21:42;;;;;;;;;;;;;;;;;;6265404;22;19923;-91
2022/11/10 09:24:08;;;;;;;;;;;;;;;;;;6240717;22;19916;-91
2022/11/10 09:26:34;;;;;;;;;;;;;;;;;;6239405;22;19997;-91
2022/11/10 09:29:00;;;;;;;;;;;;;;;;;;6241212;22;19919;-91
2022/11/10 09:31:26;;;;;;;;;;;;;;;;;;6263492;22;19919;-92
2022/11/10 09:33:51;;;;;;;;;;;;;;;;;;6241712;22;19954;-91
2022/11/10 09:36:17;;;;;;;;;;;;;;;;;;6238119;22;20175;-91
2022/11/10 09:38:43;;;;;;;;;;;;;;;;;;6266007;22;19969;-90
2022/11/10 09:41:09;;;;;;;;;;;;;;;;;;6236780;22;19923;-91
2022/11/10 09:43:35;;;;;;;;;;;;;;;;;;6238193;22;20005;-91
2022/11/10 09:46:01;;;;;;;;;;;;;;;;;;6241517;22;19915;-91
2022/11/10 09:48:27;;;;;;;;;;;;;;;;;;6262564;22;19998;-91
2022/11/10 09:50:53;;;;;;;;;;;;;;;;;;6239491;22;20239;-91
2022/11/10 09:53:19;;;;;;;;;;;;;;;;;;6261506;22;19915;-91
2022/11/10 09:55:45;;;;;;;;;;;;;;;;;;6266536;22;19968;-91
2022/11/10 09:58:11;;;;;;;;;;;;;;;;;;6242140;22;19984;-91
2022/11/10 10:00:37;;;;;;;;;;;;;;;;;;6234472;22;19929;-92
2022/11/10 10:03:03;;;;;;;;;;;;;;;;;;6236920;22;19946;-92
2022/11/10 10:05:29;;;;;;;;;;;;;;;;;;6237315;22;19915;-92
2022/11/10 10:07:55;;;;;;;;;;;;;;;;;;6242410;22;19915;-92
2022/11/10 10:10:21;;;;;;;;;;;;;;;;;;6237264;22;19926;-91
2022/11/10 10:12:47;;;;;;;;;;;;;;;;;;6241533;22;19924;-92
2022/11/10 10:15:13;;;;;;;;;;;;;;;;;;6265749;22;20251;-92
2022/11/10 10:17:39;;;;;;;;;;;;;;;;;;6240383;22;19927;-92
2022/11/10 10:20:05;;;;;;;;;;;;;;;;;;6240354;22;19931;-92
2022/11/10 10:22:31;;;;;;;;;;;;;;;;;;6237359;22;19915;-92
2022/11/10 10:24:57;;;;;;;;;;;;;;;;;;6241251;22;19919;-92
2022/11/10 10:27:24;;;;;;;;;;;;;;;;;;6238394;22;19922;-92
2022/11/10 10:29:50;;;;;;;;;;;;;;;;;;6239689;22;20362;-91
2022/11/10 10:32:16;;;;;;;;;;;;;;;;;;6237685;22;19918;-93
2022/11/10 10:34:42;;;;;;;;;;;;;;;;;;6239382;22;19919;-91
2022/11/10 10:37:08;;;;;;;;;;;;;;;;;;6265585;22;19939;-92
2022/11/10 10:39:34;;;;;;;;;;;;;;;;;;6237511;22;19919;-91
2022/11/10 10:42:00;;;;;;;;;;;;;;;;;;6239714;22;19972;-91
2022/11/10 10:44:26;;;;;;;;;;;;;;;;;;6237995;22;20319;-92
2022/11/10 10:46:52;;;;;;;;;;;;;;;;;;6266765;22;19998;-92
2022/11/10 10:49:18;;;;;;;;;;;;;;;;;;6262727;22;19955;-92
2022/11/10 10:51:44;;;;;;;;;;;;;;;;;;6265960;22;19919;-93
2022/11/10 10:54:10;;;;;;;;;;;;;;;;;;6240777;22;19915;-92
2022/11/10 10:56:36;;;;;;;;;;;;;;;;;;6237162;22;19922;-92
2022/11/10 10:59:02;;;;;;;;;;;;;;;;;;6240603;22;19915;-92
2022/11/10 11:01:28;;;;;;;;;;;;;;;;;;6262700;22;19989;-92
2022/11/10 11:03:54;;;;;;;;;;;;;;;;;;6238998;22;19919;-91
2022/11/10 11:06:20;;;;;;;;;;;;;;;;;;6239091;22;19919;-92
2022/11/10 11:08:45;;;;;;;;;;;;;;;;;;6239762;22;20345;-92
2022/11/10 11:11:11;;;;;;;;;;;;;;;;;;6241029;22;19994;-92
2022/11/10 11:13:37;;;;;;;;;;;;;;;;;;6238568;22;19926;-93
2022/11/10 11:16:04;;;;;;;;;;;;;;;;;;6265488;22;20288;-93
2022/11/10 11:18:29;;;;;;;;;;;;;;;;;;6238331;22;20370;-92
2022/11/10 11:20:55;;;;;;;;;;;;;;;;;;6239072;22;20340;-91
2022/11/10 11:23:21;;;;;;;;;;;;;;;;;;6237826;22;20252;-92
2022/11/10 11:25:47;;;;;;;;;;;;;;;;;;6241167;22;19942;-92
2022/11/10 11:28:13;;;;;;;;;;;;;;;;;;6239229;22;19919;-91
2022/11/10 11:30:39;;;;;;;;;;;;;;;;;;6264784;22;19919;-92
2022/11/10 11:33:05;;;;;;;;;;;;;;;;;;6266911;22;20355;-92
2022/11/10 11:35:31;;;;;;;;;;;;;;;;;;6264972;22;19919;-92
2022/11/10 11:37:57;;;;;;;;;;;;;;;;;;6265968;22;19925;-91
2022/11/10 11:40:24;;;;;;;;;;;;;;;;;;6236797;22;19920;-92
2022/11/10 11:42:50;;;;;;;;;;;;;;;;;;6239055;22;20366;-91
2022/11/10 11:45:16;;;;;;;;;;;;;;;;;;6262107;22;19919;-92
2022/11/10 11:47:42;;;;;;;;;;;;;;;;;;6266138;22;19954;-91
2022/11/10 11:50:08;;;;;;;;;;;;;;;;;;6265116;22;20255;-92
2022/11/10 11:52:37;;;;;;;;;;;;;;;;;;6262213;22;19926;-92
2022/11/10 11:55:05;;;;;;;;;;;;;;;;;;6264446;22;19919;-92
2022/11/10 11:57:31;;;;;;;;;;;;;;;;;;6237963;22;19927;-92
2022/11/10 11:59:57;;;;;;;;;;;;;;;;;;6265400;22;19923;-91
2022/11/10 12:02:23;;;;;;;;;;;;;;;;;;6262621;22;20332;-91
2022/11/10 12:04:49;;;;;;;;;;;;;;;;;;6238193;22;19926;-92
2022/11/10 12:07:15;;;;;;;;;;;;;;;;;;6238899;22;19915;-92
2022/11/10 12:09:42;;;;;;;;;;;;;;;;;;6240087;22;19923;-91
2022/11/10 12:12:08;;;;;;;;;;;;;;;;;;6265124;22;19915;-91
2022/11/10 12:14:34;;;;;;;;;;;;;;;;;;6261224;22;20256;-92
2022/11/10 12:17:00;;;;;;;;;;;;;;;;;;6239123;22;19919;-92
2022/11/10 12:19:26;;;;;;;;;;;;;;;;;;6263080;22;19963;-92
2022/11/10 12:21:52;;;;;;;;;;;;;;;;;;6265289;22;20348;-91
2022/11/10 12:24:18;;;;;;;;;;;;;;;;;;6258980;22;19919;-92
2022/11/10 12:26:44;;;;;;;;;;;;;;;;;;6238825;22;19982;-92
2022/11/10 12:29:10;;;;;;;;;;;;;;;;;;6236594;22;19957;-92
2022/11/10 12:31:37;;;;;;;;;;;;;;;;;;6234829;22;19919;-92
2022/11/10 12:34:02;;;;;;;;;;;;;;;;;;6238066;22;19927;-92
2022/11/10 12:36:28;;;;;;;;;;;;;;;;;;6259940;22;20018;-91
2022/11/10 12:38:54;;;;;;;;;;;;;;;;;;6238722;22;20274;-91
2022/11/10 12:41:20;;;;;;;;;;;;;;;;;;6236227;22;20004;-92
2022/11/10 12:43:46;;;;;;;;;;;;;;;;;;6263760;22;20332;-91
2022/11/10 12:46:15;;;;;;;;;;;;;;;;;;6237532;22;19926;-92
2022/11/10 12:48:41;;;;;;;;;;;;;;;;;;6240116;22;19982;-92
2022/11/10 12:51:07;;;;;;;;;;;;;;;;;;6240596;22;19959;-91
2022/11/10 12:53:33;;;;;;;;;;;;;;;;;;6239570;22;20362;-92
2022/11/10 12:55:59;;;;;;;;;;;;;;;;;;6240829;22;20355;-92
2022/11/10 12:58:25;;;;;;;;;;;;;;;;;;6263415;22;19920;-91
2022/11/10 13:00:51;;;;;;;;;;;;;;;;;;6237279;22;19965;-92
2022/11/10 13:03:17;;;;;;;;;;;;;;;;;;6235213;22;20283;-92
2022/11/10 13:05:44;;;;;;;;;;;;;;;;;;6238748;22;20043;-92
2022/11/10 13:08:10;;;;;;;;;;;;;;;;;;6265606;22;19973;-91
2022/11/10 13:10:36;;;;;;;;;;;;;;;;;;6236672;22;20300;-92
2022/11/10 13:13:02;;;;;;;;;;;;;;;;;;6239756;22;19915;-92
2022/11/10 13:15:28;;;;;;;;;;;;;;;;;;6235804;22;19944;-92
2022/11/10 13:17:54;;;;;;;;;;;;;;;;;;6238082;22;19919;-91
2022/11/10 13:20:20;;;;;;;;;;;;;;;;;;6261304;22;19919;-92
2022/11/10 13:22:46;;;;;;;;;;;;;;;;;;6263890;22;19953;-91
2022/11/10 13:25:12;;;;;;;;;;;;;;;;;;6264161;22;19919;-92
2022/11/10 13:27:37;;;;;;;;;;;;;;;;;;6261084;22;19919;-92
2022/11/10 13:30:03;;;;;;;;;;;;;;;;;;6238811;22;20318;-92
2022/11/10 13:32:29;;;;;;;;;;;;;;;;;;6235047;22;20236;-92
2022/11/10 13:34:55;;;;;;;;;;;;;;;;;;6242139;22;19919;-91
2022/11/10 13:37:21;;;;;;;;;;;;;;;;;;6277915;22;19986;-92
2022/11/10 13:39:47;;;;;;;;;;;;;;;;;;6245255;22;19923;-92
2022/11/10 13:42:13;;;;;;;;;;;;;;;;;;6240491;22;19927;-91
2022/11/10 13:44:40;;;;;;;;;;;;;;;;;;6242238;22;20016;-92
2022/11/10 13:47:07;;;;;;;;;;;;;;;;;;6246160;22;20002;-91
2022/11/10 13:49:33;;;;;;;;;;;;;;;;;;6243424;22;20711;-92
2022/11/10 13:52:05;;;;;;;;;;;;;;;;;;6265320;22;20009;-91
2022/11/10 13:54:31;;;;;;;;;;;;;;;;;;6235262;22;19986;-91
2022/11/10 13:56:56;;;;;;;;;;;;;;;;;;6236854;22;20285;-92
2022/11/10 13:59:22;;;;;;;;;;;;;;;;;;6235178;22;19919;-92
2022/11/10 14:01:48;;;;;;;;;;;;;;;;;;6264713;22;19923;-93
2022/11/10 14:04:14;;;;;;;;;;;;;;;;;;6234262;22;19919;-91
2022/11/10 14:06:42;;;;;;;;;;;;;;;;;;6239710;22;20255;-91
2022/11/10 14:09:08;;;;;;;;;;;;;;;;;;6262514;22;19919;-91
2022/11/10 14:11:34;;;;;;;;;;;;;;;;;;6259053;22;19930;-92
2022/11/10 14:14:00;;;;;;;;;;;;;;;;;;6261939;22;20340;-90
2022/11/10 14:16:26;;;;;;;;;;;;;;;;;;6236058;22;19925;-90
2022/11/10 14:19:00;;;;;;;;;;;;;;;;;;6236883;22;19926;-91
2022/11/10 14:21:32;;;;;;;;;;;;;;;;;;6238427;22;19961;-92
2022/11/10 14:24:00;;;;;;;;;;;;;;;;;;6236364;22;20026;-91
2022/11/10 14:26:27;;;;;;;;;;;;;;;;;;6234334;22;19989;-91
2022/11/10 14:28:56;;;;;;;;;;;;;;;;;;6237880;22;19919;-94
2022/11/10 14:31:35;;;;;;;;;;;;;;;;;;6227851;22;19919;-91
2022/11/10 14:34:01;;;;;;;;;;;;;;;;;;6237204;22;19942;-91
2022/11/10 14:36:29;;;;;;;;;;;;;;;;;;6235118;22;19946;-91
2022/11/10 14:39:00;;;;;;;;;;;;;;;;;;6237880;22;19927;-91
2022/11/10 14:41:26;;;;;;;;;;;;;;;;;;6235877;22;20101;-92
2022/11/10 14:43:52;;;;;;;;;;;;;;;;;;6211559;22;20339;-91
2022/11/10 14:46:27;;;;;;;;;;;;;;;;;;6234224;22;19926;-92
2022/11/10 14:48:53;;;;;;;;;;;;;;;;;;6235291;22;20025;-91
2022/11/10 14:51:32;;;;;;;;;;;;;;;;;;;;;
2022/11/10 14:53:58;;;;;;;;;;;;;;;;;;6237726;22;19926;-92
2022/11/10 14:56:30;;;;;;;;;;;;;;;;;;6238591;22;19919;-92
2022/11/10 14:58:58;;;;;;;;;;;;;;;;;;6240267;22;19922;-91
2022/11/10 15:01:27;;;;;;;;;;;;;;;;;;6237845;22;19962;-92
2022/11/10 15:03:53;;;;;;;;;;;;;;;;;;6239586;22;20391;-90
2022/11/10 15:06:22;;;;;;;;;;;;;;;;;;6234156;22;19965;-92
2022/11/10 15:08:58;;;;;;;;;;;;;;;;;;6240124;22;19994;-92
2022/11/10 15:11:24;;;;;;;;;;;;;;;;;;6260368;22;20069;-91
2022/11/10 15:13:50;;;;;;;;;;;;;;;;;;6238521;22;20375;-91
2022/11/10 15:16:24;;;;;;;;;;;;;;;;;;6238108;22;20367;-90
2022/11/10 15:19:26;;;;;;;;;;;;;;;;;;6242803;22;20395;-90
2022/11/10 15:21:57;;;;;;;;;;;;;;;;;;6262931;22;19919;-90
2022/11/10 15:24:32;;;;;;;;;;;;;;;;;;6238891;22;20352;-90
2022/11/10 15:27:04;;;;;;;;;;;;;;;;;;6263974;22;19926;-90
2022/11/10 15:29:38;;;;;;;;;;;;;;;;;;6185241;22;20022;-90
2022/11/10 15:32:05;;;;;;;;;;;;;;;;;;6234234;22;19919;-90
2022/11/10 15:34:31;;;;;;;;;;;;;;;;;;6234418;22;19919;-90
2022/11/10 15:37:37;;;;;;;;;;;;;;;;;;6236583;22;20276;-90
2022/11/10 15:40:06;;;;;;;;;;;;;;;;;;6231559;22;19924;-91
2022/11/10 15:42:45;;;;;;;;;;;;;;;;;;6234718;22;19919;-90
2022/11/10 15:48:14;;;;;;;;;;;;;;;;;;6269306;22;20288;-90
2022/11/10 15:50:55;;;;;;;;;;;;;;;;;;6231060;22;19919;-91
2022/11/10 15:56:31;;;;;;;;;;;;;;;;;;6229095;22;20252;-91
2022/11/10 15:59:02;;;;;;;;;;;;;;;;;;6230887;22;19962;-90
2022/11/10 16:01:28;;;;;;;;;;;;;;;;;;6187324;23;20396;-90
2022/11/10 16:03:55;;;;;;;;;;;;;;;;;;6167423;23;19920;-90
2022/11/10 16:06:21;;;;;;;;;;;;;;;;;;6198398;23;20299;-91
2022/11/10 16:08:47;;;;;;;;;;;;;;;;;;6223678;23;19930;-91
2022/11/10 16:11:13;;;;;;;;;;;;;;;;;;6198846;23;19920;-91
2022/11/10 16:13:41;;;;;;;;;;;;;;;;;;6196861;23;19919;-91
2022/11/10 16:16:07;;;;;;;;;;;;;;;;;;6202626;23;19974;-91
2022/11/10 16:18:33;;;;;;;;;;;;;;;;;;6195177;23;20388;-90
2022/11/10 16:21:00;;;;;;;;;;;;;;;;;;6226493;23;20001;-90
2022/11/10 16:23:26;;;;;;;;;;;;;;;;;;6227412;23;20299;-90
2022/11/10 16:25:52;;;;;;;;;;;;;;;;;;6203053;23;19927;-90
2022/11/10 16:28:18;;;;;;;;;;;;;;;;;;6195007;23;19987;-91
2022/11/10 16:30:44;;;;;;;;;;;;;;;;;;6194661;23;19943;-90
2022/11/10 16:33:10;;;;;;;;;;;;;;;;;;6199809;23;20311;-90
2022/11/10 16:35:37;;;;;;;;;;;;;;;;;;6195757;23;19923;-90
2022/11/10 16:38:03;;;;;;;;;;;;;;;;;;6200401;22;19923;-90
2022/11/10 16:40:32;;;;;;;;;;;;;;;;;;6233577;22;19958;-90
2022/11/10 16:42:58;;;;;;;;;;;;;;;;;;6233711;22;20287;-90
2022/11/10 16:45:28;;;;;;;;;;;;;;;;;;6232611;22;20372;-90
2022/11/10 16:47:57;;;;;;;;;;;;;;;;;;6231818;22;19923;-90
2022/11/10 16:50:23;;;;;;;;;;;;;;;;;;6230714;22;19915;-91
2022/11/10 16:52:49;;;;;;;;;;;;;;;;;;6234833;22;19915;-90
2022/11/10 16:55:18;;;;;;;;;;;;;;;;;;6258139;22;19973;-90
2022/11/10 16:57:47;;;;;;;;;;;;;;;;;;6236370;22;20350;-90
2022/11/10 17:00:16;;;;;;;;;;;;;;;;;;6237154;22;20382;-91